sensor_id;sensor_type;location;lat;lon;timestamp;temperature;humidity
23685;DHT22;12020;51.384;6.908;2022-08-14T00:00:17;21.90;97.00
23685;DHT22;12020;51.384;6.908;2022-08-14T00:02:43;21.90;97.10
23685;DHT22;12020;51.384;6.908;2022-08-14T00:05:13;21.90;97.70
23685;DHT22;12020;51.384;6.908;2022-08-14T00:07:40;21.90;97.90
23685;DHT22;12020;51.384;6.908;2022-08-14T00:10:09;21.80;98.40
23685;DHT22;12020;51.384;6.908;2022-08-14T00:12:45;21.70;98.80
23685;DHT22;12020;51.384;6.908;2022-08-14T00:15:32;21.70;98.90
23685;DHT22;12020;51.384;6.908;2022-08-14T00:18:01;21.60;99.40
23685;DHT22;12020;51.384;6.908;2022-08-14T00:20:31;21.60;99.60
23685;DHT22;12020;51.384;6.908;2022-08-14T00:22:58;21.50;99.90
23685;DHT22;12020;51.384;6.908;2022-08-14T00:25:25;21.50;99.90
23685;DHT22;12020;51.384;6.908;2022-08-14T00:27:51;21.50;99.90
23685;DHT22;12020;51.384;6.908;2022-08-14T00:30:17;21.40;99.90
23685;DHT22;12020;51.384;6.908;2022-08-14T00:32:44;21.30;99.90
23685;DHT22;12020;51.384;6.908;2022-08-14T00:35:11;21.30;99.90
23685;DHT22;12020;51.384;6.908;2022-08-14T00:37:39;21.20;99.90
23685;DHT22;12020;51.384;6.908;2022-08-14T00:40:06;21.10;99.90
23685;DHT22;12020;51.384;6.908;2022-08-14T00:42:33;21.10;99.90
23685;DHT22;12020;51.384;6.908;2022-08-14T00:44:58;21.00;99.90
23685;DHT22;12020;51.384;6.908;2022-08-14T00:47:24;21.00;99.90
23685;DHT22;12020;51.384;6.908;2022-08-14T00:49:53;20.90;99.90
23685;DHT22;12020;51.384;6.908;2022-08-14T00:52:21;20.90;99.90
23685;DHT22;12020;51.384;6.908;2022-08-14T00:54:49;20.80;99.90
23685;DHT22;12020;51.384;6.908;2022-08-14T00:57:23;20.80;99.90
23685;DHT22;12020;51.384;6.908;2022-08-14T00:59:50;20.80;99.90
23685;DHT22;12020;51.384;6.908;2022-08-14T01:02:18;20.80;99.90
23685;DHT22;12020;51.384;6.908;2022-08-14T01:04:51;20.80;99.90
23685;DHT22;12020;51.384;6.908;2022-08-14T01:07:17;20.80;99.90
23685;DHT22;12020;51.384;6.908;2022-08-14T01:09:51;20.70;99.90
23685;DHT22;12020;51.384;6.908;2022-08-14T01:12:18;20.70;99.90
23685;DHT22;12020;51.384;6.908;2022-08-14T01:14:45;20.60;99.90
23685;DHT22;12020;51.384;6.908;2022-08-14T01:17:12;20.60;99.90
23685;DHT22;12020;51.384;6.908;2022-08-14T01:19:38;20.60;99.90
23685;DHT22;12020;51.384;6.908;2022-08-14T01:22:22;20.60;99.90
23685;DHT22;12020;51.384;6.908;2022-08-14T01:24:48;20.60;99.90
23685;DHT22;12020;51.384;6.908;2022-08-14T01:27:18;20.50;99.90
23685;DHT22;12020;51.384;6.908;2022-08-14T01:29:52;20.50;99.90
23685;DHT22;12020;51.384;6.908;2022-08-14T01:32:18;20.40;99.90
23685;DHT22;12020;51.384;6.908;2022-08-14T01:34:53;20.40;99.90
23685;DHT22;12020;51.384;6.908;2022-08-14T01:37:19;20.40;99.90
23685;DHT22;12020;51.384;6.908;2022-08-14T01:39:51;20.30;99.90
23685;DHT22;12020;51.384;6.908;2022-08-14T01:42:18;20.30;99.90
23685;DHT22;12020;51.384;6.908;2022-08-14T01:44:46;20.20;99.90
23685;DHT22;12020;51.384;6.908;2022-08-14T01:47:16;20.20;99.90
23685;DHT22;12020;51.384;6.908;2022-08-14T01:49:44;20.20;99.90
23685;DHT22;12020;51.384;6.908;2022-08-14T01:52:10;20.10;99.90
23685;DHT22;12020;51.384;6.908;2022-08-14T01:54:37;20.00;99.90
23685;DHT22;12020;51.384;6.908;2022-08-14T01:57:03;20.00;99.90
23685;DHT22;12020;51.384;6.908;2022-08-14T01:59:31;20.00;99.90
23685;DHT22;12020;51.384;6.908;2022-08-14T02:02:03;19.90;99.90
23685;DHT22;12020;51.384;6.908;2022-08-14T02:04:34;19.90;99.90
23685;DHT22;12020;51.384;6.908;2022-08-14T02:07:03;19.90;99.90
23685;DHT22;12020;51.384;6.908;2022-08-14T02:09:29;19.80;99.90
23685;DHT22;12020;51.384;6.908;2022-08-14T02:12:00;19.80;99.90
23685;DHT22;12020;51.384;6.908;2022-08-14T02:14:26;19.70;99.90
23685;DHT22;12020;51.384;6.908;2022-08-14T02:16:52;19.70;99.90
23685;DHT22;12020;51.384;6.908;2022-08-14T02:19:21;19.60;99.90
23685;DHT22;12020;51.384;6.908;2022-08-14T02:21:50;19.70;99.90
23685;DHT22;12020;51.384;6.908;2022-08-14T02:24:18;19.70;99.90
23685;DHT22;12020;51.384;6.908;2022-08-14T02:26:46;19.60;99.90
23685;DHT22;12020;51.384;6.908;2022-08-14T02:29:19;19.60;99.90
23685;DHT22;12020;51.384;6.908;2022-08-14T02:31:49;19.60;99.90
23685;DHT22;12020;51.384;6.908;2022-08-14T02:34:22;19.60;99.90
23685;DHT22;12020;51.384;6.908;2022-08-14T02:36:50;19.60;99.90
23685;DHT22;12020;51.384;6.908;2022-08-14T02:39:16;19.60;99.90
23685;DHT22;12020;51.384;6.908;2022-08-14T02:41:42;19.50;99.90
23685;DHT22;12020;51.384;6.908;2022-08-14T02:44:09;19.50;99.90
23685;DHT22;12020;51.384;6.908;2022-08-14T02:46:37;19.50;99.90
23685;DHT22;12020;51.384;6.908;2022-08-14T02:49:03;19.50;99.90
23685;DHT22;12020;51.384;6.908;2022-08-14T02:51:31;19.40;99.90
23685;DHT22;12020;51.384;6.908;2022-08-14T02:53:57;19.40;99.90
23685;DHT22;12020;51.384;6.908;2022-08-14T02:56:23;19.40;99.90
23685;DHT22;12020;51.384;6.908;2022-08-14T02:58:52;19.40;99.90
23685;DHT22;12020;51.384;6.908;2022-08-14T03:01:20;19.40;99.90
23685;DHT22;12020;51.384;6.908;2022-08-14T03:03:47;19.40;99.90
23685;DHT22;12020;51.384;6.908;2022-08-14T03:06:15;19.30;99.90
23685;DHT22;12020;51.384;6.908;2022-08-14T03:08:42;19.30;99.90
23685;DHT22;12020;51.384;6.908;2022-08-14T03:11:12;19.30;99.90
23685;DHT22;12020;51.384;6.908;2022-08-14T03:13:43;19.30;99.90
23685;DHT22;12020;51.384;6.908;2022-08-14T03:16:11;19.30;99.90
23685;DHT22;12020;51.384;6.908;2022-08-14T03:18:43;19.30;99.90
23685;DHT22;12020;51.384;6.908;2022-08-14T03:21:15;19.30;99.90
23685;DHT22;12020;51.384;6.908;2022-08-14T03:23:46;19.30;99.90
23685;DHT22;12020;51.384;6.908;2022-08-14T03:26:15;19.30;99.90
23685;DHT22;12020;51.384;6.908;2022-08-14T03:28:44;19.30;99.90
23685;DHT22;12020;51.384;6.908;2022-08-14T03:31:11;19.30;99.90
23685;DHT22;12020;51.384;6.908;2022-08-14T03:33:38;19.20;99.90
23685;DHT22;12020;51.384;6.908;2022-08-14T03:36:13;19.20;99.90
23685;DHT22;12020;51.384;6.908;2022-08-14T03:38:43;19.20;99.90
23685;DHT22;12020;51.384;6.908;2022-08-14T03:41:11;19.10;99.90
23685;DHT22;12020;51.384;6.908;2022-08-14T03:43:44;19.00;99.90
23685;DHT22;12020;51.384;6.908;2022-08-14T03:46:10;19.00;99.90
23685;DHT22;12020;51.384;6.908;2022-08-14T03:48:38;19.00;99.90
23685;DHT22;12020;51.384;6.908;2022-08-14T03:51:05;19.00;99.90
23685;DHT22;12020;51.384;6.908;2022-08-14T03:53:38;19.00;99.90
23685;DHT22;12020;51.384;6.908;2022-08-14T03:56:10;19.00;99.90
23685;DHT22;12020;51.384;6.908;2022-08-14T03:58:47;18.90;99.90
23685;DHT22;12020;51.384;6.908;2022-08-14T04:01:16;18.90;99.90
23685;DHT22;12020;51.384;6.908;2022-08-14T04:03:44;18.80;99.90
23685;DHT22;12020;51.384;6.908;2022-08-14T04:06:11;18.80;99.90
23685;DHT22;12020;51.384;6.908;2022-08-14T04:08:38;18.80;99.90
23685;DHT22;12020;51.384;6.908;2022-08-14T04:11:05;18.80;99.90
23685;DHT22;12020;51.384;6.908;2022-08-14T04:13:32;18.80;99.90
23685;DHT22;12020;51.384;6.908;2022-08-14T04:16:00;18.70;99.90
23685;DHT22;12020;51.384;6.908;2022-08-14T04:18:26;18.70;99.90
23685;DHT22;12020;51.384;6.908;2022-08-14T04:20:52;18.70;99.90
23685;DHT22;12020;51.384;6.908;2022-08-14T04:23:18;18.70;99.90
23685;DHT22;12020;51.384;6.908;2022-08-14T04:25:43;18.70;99.90
23685;DHT22;12020;51.384;6.908;2022-08-14T04:28:09;18.60;99.90
23685;DHT22;12020;51.384;6.908;2022-08-14T04:30:36;18.60;99.90
23685;DHT22;12020;51.384;6.908;2022-08-14T04:33:06;18.60;99.90
23685;DHT22;12020;51.384;6.908;2022-08-14T04:35:37;18.60;99.90
23685;DHT22;12020;51.384;6.908;2022-08-14T04:38:06;18.60;99.90
23685;DHT22;12020;51.384;6.908;2022-08-14T04:40:51;18.60;99.90
23685;DHT22;12020;51.384;6.908;2022-08-14T04:43:35;18.60;99.90
23685;DHT22;12020;51.384;6.908;2022-08-14T04:46:03;18.60;99.90
23685;DHT22;12020;51.384;6.908;2022-08-14T04:48:29;18.50;99.90
23685;DHT22;12020;51.384;6.908;2022-08-14T04:50:55;18.50;99.90
23685;DHT22;12020;51.384;6.908;2022-08-14T04:53:26;18.50;99.90
23685;DHT22;12020;51.384;6.908;2022-08-14T04:55:54;18.50;99.90
23685;DHT22;12020;51.384;6.908;2022-08-14T04:58:24;18.50;99.90
23685;DHT22;12020;51.384;6.908;2022-08-14T05:00:51;18.50;99.90
23685;DHT22;12020;51.384;6.908;2022-08-14T05:03:22;18.50;99.90
23685;DHT22;12020;51.384;6.908;2022-08-14T05:05:54;18.50;99.90
23685;DHT22;12020;51.384;6.908;2022-08-14T05:08:21;18.50;99.90
23685;DHT22;12020;51.384;6.908;2022-08-14T05:10:53;18.50;99.90
23685;DHT22;12020;51.384;6.908;2022-08-14T05:13:20;18.50;99.90
23685;DHT22;12020;51.384;6.908;2022-08-14T05:15:48;18.50;99.90
23685;DHT22;12020;51.384;6.908;2022-08-14T05:18:16;18.50;99.90
23685;DHT22;12020;51.384;6.908;2022-08-14T05:20:43;18.50;99.90
23685;DHT22;12020;51.384;6.908;2022-08-14T05:23:14;18.50;99.90
23685;DHT22;12020;51.384;6.908;2022-08-14T05:25:41;18.60;99.90
23685;DHT22;12020;51.384;6.908;2022-08-14T05:28:15;18.50;99.90
23685;DHT22;12020;51.384;6.908;2022-08-14T05:30:45;18.50;99.90
23685;DHT22;12020;51.384;6.908;2022-08-14T05:33:16;18.60;99.90
23685;DHT22;12020;51.384;6.908;2022-08-14T05:35:44;18.60;99.90
23685;DHT22;12020;51.384;6.908;2022-08-14T05:38:11;18.60;99.90
23685;DHT22;12020;51.384;6.908;2022-08-14T05:40:39;18.70;99.90
23685;DHT22;12020;51.384;6.908;2022-08-14T05:43:05;18.70;99.90
23685;DHT22;12020;51.384;6.908;2022-08-14T05:45:31;18.70;99.90
23685;DHT22;12020;51.384;6.908;2022-08-14T05:47:59;18.80;99.90
23685;DHT22;12020;51.384;6.908;2022-08-14T05:50:24;18.80;99.90
23685;DHT22;12020;51.384;6.908;2022-08-14T05:52:50;18.80;99.90
23685;DHT22;12020;51.384;6.908;2022-08-14T05:55:16;18.90;99.90
23685;DHT22;12020;51.384;6.908;2022-08-14T05:58:06;18.90;99.90
23685;DHT22;12020;51.384;6.908;2022-08-14T06:00:38;18.90;99.90
23685;DHT22;12020;51.384;6.908;2022-08-14T06:03:06;19.00;99.90
23685;DHT22;12020;51.384;6.908;2022-08-14T06:05:33;19.10;99.90
23685;DHT22;12020;51.384;6.908;2022-08-14T06:07:59;19.10;99.90
23685;DHT22;12020;51.384;6.908;2022-08-14T06:10:27;19.20;99.90
23685;DHT22;12020;51.384;6.908;2022-08-14T06:12:53;19.20;99.90
23685;DHT22;12020;51.384;6.908;2022-08-14T06:15:18;19.30;99.90
23685;DHT22;12020;51.384;6.908;2022-08-14T06:17:51;19.40;99.90
23685;DHT22;12020;51.384;6.908;2022-08-14T06:20:18;19.40;99.90
23685;DHT22;12020;51.384;6.908;2022-08-14T06:22:45;19.50;99.90
23685;DHT22;12020;51.384;6.908;2022-08-14T06:25:13;19.50;99.90
23685;DHT22;12020;51.384;6.908;2022-08-14T06:27:43;19.60;99.90
23685;DHT22;12020;51.384;6.908;2022-08-14T06:30:13;19.70;99.90
23685;DHT22;12020;51.384;6.908;2022-08-14T06:32:39;19.80;99.90
23685;DHT22;12020;51.384;6.908;2022-08-14T06:35:06;19.80;99.90
23685;DHT22;12020;51.384;6.908;2022-08-14T06:37:43;19.90;99.90
23685;DHT22;12020;51.384;6.908;2022-08-14T06:40:12;20.00;99.90
23685;DHT22;12020;51.384;6.908;2022-08-14T06:42:40;20.10;99.90
23685;DHT22;12020;51.384;6.908;2022-08-14T06:45:07;20.30;99.90
23685;DHT22;12020;51.384;6.908;2022-08-14T06:47:35;20.50;99.90
23685;DHT22;12020;51.384;6.908;2022-08-14T06:50:04;20.60;99.90
23685;DHT22;12020;51.384;6.908;2022-08-14T06:52:31;20.70;99.90
23685;DHT22;12020;51.384;6.908;2022-08-14T06:54:57;20.70;99.90
23685;DHT22;12020;51.384;6.908;2022-08-14T06:57:30;20.80;99.90
23685;DHT22;12020;51.384;6.908;2022-08-14T07:00:00;20.80;99.90
23685;DHT22;12020;51.384;6.908;2022-08-14T07:02:26;20.90;99.90
23685;DHT22;12020;51.384;6.908;2022-08-14T07:05:10;20.90;99.90
23685;DHT22;12020;51.384;6.908;2022-08-14T07:07:55;20.90;99.90
23685;DHT22;12020;51.384;6.908;2022-08-14T07:10:23;21.00;99.90
23685;DHT22;12020;51.384;6.908;2022-08-14T07:12:52;21.00;99.90
23685;DHT22;12020;51.384;6.908;2022-08-14T07:15:18;21.00;99.90
23685;DHT22;12020;51.384;6.908;2022-08-14T07:17:45;21.10;99.90
23685;DHT22;12020;51.384;6.908;2022-08-14T07:20:14;21.20;99.90
23685;DHT22;12020;51.384;6.908;2022-08-14T07:22:47;21.30;99.90
23685;DHT22;12020;51.384;6.908;2022-08-14T07:25:13;21.30;99.90
23685;DHT22;12020;51.384;6.908;2022-08-14T07:27:39;21.40;99.90
23685;DHT22;12020;51.384;6.908;2022-08-14T07:30:06;21.50;99.90
23685;DHT22;12020;51.384;6.908;2022-08-14T07:32:33;21.60;99.90
23685;DHT22;12020;51.384;6.908;2022-08-14T07:35:02;21.70;99.90
23685;DHT22;12020;51.384;6.908;2022-08-14T07:37:28;21.80;99.90
23685;DHT22;12020;51.384;6.908;2022-08-14T07:39:54;22.00;99.90
23685;DHT22;12020;51.384;6.908;2022-08-14T07:42:21;22.10;99.90
23685;DHT22;12020;51.384;6.908;2022-08-14T07:44:48;22.30;99.90
23685;DHT22;12020;51.384;6.908;2022-08-14T07:47:16;22.50;99.90
23685;DHT22;12020;51.384;6.908;2022-08-14T07:50:00;22.70;99.90
23685;DHT22;12020;51.384;6.908;2022-08-14T07:52:27;22.90;99.90
23685;DHT22;12020;51.384;6.908;2022-08-14T07:54:53;23.20;99.90
23685;DHT22;12020;51.384;6.908;2022-08-14T07:57:20;23.40;99.90
23685;DHT22;12020;51.384;6.908;2022-08-14T07:59:47;23.80;99.90
23685;DHT22;12020;51.384;6.908;2022-08-14T08:02:15;24.00;99.90
23685;DHT22;12020;51.384;6.908;2022-08-14T08:04:46;24.30;99.90
23685;DHT22;12020;51.384;6.908;2022-08-14T08:07:14;24.60;99.90
23685;DHT22;12020;51.384;6.908;2022-08-14T08:09:48;25.00;99.90
23685;DHT22;12020;51.384;6.908;2022-08-14T08:12:19;25.20;99.90
23685;DHT22;12020;51.384;6.908;2022-08-14T08:14:46;25.50;99.90
23685;DHT22;12020;51.384;6.908;2022-08-14T08:17:13;25.80;99.90
23685;DHT22;12020;51.384;6.908;2022-08-14T08:19:40;26.00;99.90
23685;DHT22;12020;51.384;6.908;2022-08-14T08:22:05;26.30;99.90
23685;DHT22;12020;51.384;6.908;2022-08-14T08:24:31;26.50;99.90
23685;DHT22;12020;51.384;6.908;2022-08-14T08:27:17;26.80;99.90
23685;DHT22;12020;51.384;6.908;2022-08-14T08:29:44;27.10;99.90
23685;DHT22;12020;51.384;6.908;2022-08-14T08:32:11;27.30;99.90
23685;DHT22;12020;51.384;6.908;2022-08-14T08:34:46;27.60;99.90
23685;DHT22;12020;51.384;6.908;2022-08-14T08:37:13;27.80;99.90
23685;DHT22;12020;51.384;6.908;2022-08-14T08:39:47;28.00;99.90
23685;DHT22;12020;51.384;6.908;2022-08-14T08:42:24;28.10;99.90
23685;DHT22;12020;51.384;6.908;2022-08-14T08:44:54;28.30;99.90
23685;DHT22;12020;51.384;6.908;2022-08-14T08:47:20;28.50;99.90
23685;DHT22;12020;51.384;6.908;2022-08-14T08:49:45;28.60;99.90
23685;DHT22;12020;51.384;6.908;2022-08-14T08:52:11;28.70;99.90
23685;DHT22;12020;51.384;6.908;2022-08-14T08:54:38;28.90;99.90
23685;DHT22;12020;51.384;6.908;2022-08-14T08:57:14;29.10;99.90
23685;DHT22;12020;51.384;6.908;2022-08-14T08:59:43;29.20;99.90
23685;DHT22;12020;51.384;6.908;2022-08-14T09:02:11;29.40;99.90
23685;DHT22;12020;51.384;6.908;2022-08-14T09:04:42;29.60;99.90
23685;DHT22;12020;51.384;6.908;2022-08-14T09:07:13;29.70;99.90
23685;DHT22;12020;51.384;6.908;2022-08-14T09:09:40;29.90;99.40
23685;DHT22;12020;51.384;6.908;2022-08-14T09:12:18;30.00;98.40
23685;DHT22;12020;51.384;6.908;2022-08-14T09:14:46;30.20;98.00
23685;DHT22;12020;51.384;6.908;2022-08-14T09:17:17;30.30;98.00
23685;DHT22;12020;51.384;6.908;2022-08-14T09:19:44;30.50;96.90
23685;DHT22;12020;51.384;6.908;2022-08-14T09:22:26;30.60;96.50
23685;DHT22;12020;51.384;6.908;2022-08-14T09:24:54;30.60;95.30
23685;DHT22;12020;51.384;6.908;2022-08-14T09:27:23;30.80;95.30
23685;DHT22;12020;51.384;6.908;2022-08-14T09:29:49;31.00;94.60
23685;DHT22;12020;51.384;6.908;2022-08-14T09:32:28;31.10;93.60
23685;DHT22;12020;51.384;6.908;2022-08-14T09:35:22;31.30;92.50
23685;DHT22;12020;51.384;6.908;2022-08-14T09:41:03;31.60;90.30
23685;DHT22;12020;51.384;6.908;2022-08-14T09:43:53;31.70;90.00
23685;DHT22;12020;51.384;6.908;2022-08-14T09:46:24;31.80;84.10
23685;DHT22;12020;51.384;6.908;2022-08-14T09:49:00;31.80;82.10
23685;DHT22;12020;51.384;6.908;2022-08-14T09:51:28;31.90;81.00
23685;DHT22;12020;51.384;6.908;2022-08-14T09:54:08;32.00;80.80
23685;DHT22;12020;51.384;6.908;2022-08-14T09:56:48;32.00;79.80
23685;DHT22;12020;51.384;6.908;2022-08-14T09:59:17;32.10;78.60
23685;DHT22;12020;51.384;6.908;2022-08-14T10:01:48;32.20;77.10
23685;DHT22;12020;51.384;6.908;2022-08-14T10:04:20;32.40;76.10
23685;DHT22;12020;51.384;6.908;2022-08-14T10:06:48;32.40;76.20
23685;DHT22;12020;51.384;6.908;2022-08-14T10:09:16;32.50;76.80
23685;DHT22;12020;51.384;6.908;2022-08-14T10:11:57;32.60;76.70
23685;DHT22;12020;51.384;6.908;2022-08-14T10:14:27;32.60;78.00
23685;DHT22;12020;51.384;6.908;2022-08-14T10:16:55;32.70;76.20
23685;DHT22;12020;51.384;6.908;2022-08-14T10:19:26;32.70;75.20
23685;DHT22;12020;51.384;6.908;2022-08-14T10:22:05;32.80;78.50
23685;DHT22;12020;51.384;6.908;2022-08-14T10:24:43;32.80;76.90
23685;DHT22;12020;51.384;6.908;2022-08-14T10:27:23;32.70;76.00
23685;DHT22;12020;51.384;6.908;2022-08-14T10:30:13;32.70;76.10
23685;DHT22;12020;51.384;6.908;2022-08-14T10:32:46;32.80;75.80
23685;DHT22;12020;51.384;6.908;2022-08-14T10:35:14;32.80;75.60
23685;DHT22;12020;51.384;6.908;2022-08-14T10:37:45;32.80;75.90
23685;DHT22;12020;51.384;6.908;2022-08-14T10:40:15;32.80;76.40
23685;DHT22;12020;51.384;6.908;2022-08-14T10:42:42;32.80;74.50
23685;DHT22;12020;51.384;6.908;2022-08-14T10:45:36;32.90;76.60
23685;DHT22;12020;51.384;6.908;2022-08-14T10:48:13;33.00;77.30
23685;DHT22;12020;51.384;6.908;2022-08-14T10:50:41;33.00;73.30
23685;DHT22;12020;51.384;6.908;2022-08-14T10:53:10;32.90;73.10
23685;DHT22;12020;51.384;6.908;2022-08-14T10:55:38;32.80;75.60
23685;DHT22;12020;51.384;6.908;2022-08-14T10:58:10;32.80;75.60
23685;DHT22;12020;51.384;6.908;2022-08-14T11:00:41;32.90;74.90
23685;DHT22;12020;51.384;6.908;2022-08-14T11:03:18;32.80;73.60
23685;DHT22;12020;51.384;6.908;2022-08-14T11:05:45;32.80;73.00
23685;DHT22;12020;51.384;6.908;2022-08-14T11:08:15;32.70;74.20
23685;DHT22;12020;51.384;6.908;2022-08-14T11:10:53;32.70;74.40
23685;DHT22;12020;51.384;6.908;2022-08-14T11:13:24;32.70;74.00
23685;DHT22;12020;51.384;6.908;2022-08-14T11:15:53;32.70;74.00
23685;DHT22;12020;51.384;6.908;2022-08-14T11:18:21;32.70;73.30
23685;DHT22;12020;51.384;6.908;2022-08-14T11:20:51;32.60;73.30
23685;DHT22;12020;51.384;6.908;2022-08-14T11:23:28;32.60;75.60
23685;DHT22;12020;51.384;6.908;2022-08-14T11:25:56;32.60;74.10
23685;DHT22;12020;51.384;6.908;2022-08-14T11:28:24;32.60;75.00
23685;DHT22;12020;51.384;6.908;2022-08-14T11:30:53;32.60;75.20
23685;DHT22;12020;51.384;6.908;2022-08-14T11:33:26;32.70;73.40
23685;DHT22;12020;51.384;6.908;2022-08-14T11:36:11;32.70;76.20
23685;DHT22;12020;51.384;6.908;2022-08-14T11:38:41;32.80;76.50
23685;DHT22;12020;51.384;6.908;2022-08-14T11:41:13;32.80;76.30
23685;DHT22;12020;51.384;6.908;2022-08-14T11:43:49;32.70;74.80
23685;DHT22;12020;51.384;6.908;2022-08-14T11:46:16;32.50;73.90
23685;DHT22;12020;51.384;6.908;2022-08-14T11:48:46;32.40;73.20
23685;DHT22;12020;51.384;6.908;2022-08-14T11:51:21;32.30;73.50
23685;DHT22;12020;51.384;6.908;2022-08-14T11:54:05;32.20;74.50
23685;DHT22;12020;51.384;6.908;2022-08-14T11:56:38;32.20;74.50
23685;DHT22;12020;51.384;6.908;2022-08-14T11:59:07;32.30;74.30
23685;DHT22;12020;51.384;6.908;2022-08-14T12:01:34;32.20;73.90
23685;DHT22;12020;51.384;6.908;2022-08-14T12:04:16;32.10;76.50
23685;DHT22;12020;51.384;6.908;2022-08-14T12:06:48;31.90;77.10
23685;DHT22;12020;51.384;6.908;2022-08-14T12:09:27;31.90;78.80
23685;DHT22;12020;51.384;6.908;2022-08-14T12:11:55;31.70;80.00
23685;DHT22;12020;51.384;6.908;2022-08-14T12:14:24;31.70;82.70
23685;DHT22;12020;51.384;6.908;2022-08-14T12:17:04;31.70;81.50
23685;DHT22;12020;51.384;6.908;2022-08-14T12:19:46;31.70;81.10
23685;DHT22;12020;51.384;6.908;2022-08-14T12:22:13;31.80;76.10
23685;DHT22;12020;51.384;6.908;2022-08-14T12:24:41;31.90;78.00
23685;DHT22;12020;51.384;6.908;2022-08-14T12:27:11;32.00;76.50
23685;DHT22;12020;51.384;6.908;2022-08-14T12:29:50;32.10;77.30
23685;DHT22;12020;51.384;6.908;2022-08-14T12:32:17;32.10;77.00
23685;DHT22;12020;51.384;6.908;2022-08-14T12:34:52;32.20;76.20
23685;DHT22;12020;51.384;6.908;2022-08-14T12:37:28;32.20;78.60
23685;DHT22;12020;51.384;6.908;2022-08-14T12:39:55;32.30;77.00
23685;DHT22;12020;51.384;6.908;2022-08-14T12:42:33;32.30;74.30
23685;DHT22;12020;51.384;6.908;2022-08-14T12:45:00;32.30;74.10
23685;DHT22;12020;51.384;6.908;2022-08-14T12:47:26;32.30;74.10
23685;DHT22;12020;51.384;6.908;2022-08-14T12:49:56;32.20;72.10
23685;DHT22;12020;51.384;6.908;2022-08-14T12:52:35;32.10;72.70
23685;DHT22;12020;51.384;6.908;2022-08-14T12:55:08;32.10;74.80
23685;DHT22;12020;51.384;6.908;2022-08-14T12:57:43;32.10;72.70
23685;DHT22;12020;51.384;6.908;2022-08-14T13:00:22;32.00;71.30
23685;DHT22;12020;51.384;6.908;2022-08-14T13:02:54;32.00;72.70
23685;DHT22;12020;51.384;6.908;2022-08-14T13:05:28;32.00;71.10
23685;DHT22;12020;51.384;6.908;2022-08-14T13:07:58;31.90;71.60
23685;DHT22;12020;51.384;6.908;2022-08-14T13:10:25;31.90;71.10
23685;DHT22;12020;51.384;6.908;2022-08-14T13:12:55;31.90;71.40
23685;DHT22;12020;51.384;6.908;2022-08-14T13:15:22;31.90;72.30
23685;DHT22;12020;51.384;6.908;2022-08-14T13:17:51;31.90;71.00
23685;DHT22;12020;51.384;6.908;2022-08-14T13:20:20;31.90;73.40
23685;DHT22;12020;51.384;6.908;2022-08-14T13:22:48;31.90;73.60
23685;DHT22;12020;51.384;6.908;2022-08-14T13:25:19;32.00;73.10
23685;DHT22;12020;51.384;6.908;2022-08-14T13:27:54;32.00;73.10
23685;DHT22;12020;51.384;6.908;2022-08-14T13:30:23;32.00;72.10
23685;DHT22;12020;51.384;6.908;2022-08-14T13:32:51;31.80;71.50
23685;DHT22;12020;51.384;6.908;2022-08-14T13:35:19;31.60;71.40
23685;DHT22;12020;51.384;6.908;2022-08-14T13:37:47;31.60;72.00
23685;DHT22;12020;51.384;6.908;2022-08-14T13:40:17;31.60;72.70
23685;DHT22;12020;51.384;6.908;2022-08-14T13:42:49;31.60;72.00
23685;DHT22;12020;51.384;6.908;2022-08-14T13:45:18;31.60;72.90
23685;DHT22;12020;51.384;6.908;2022-08-14T13:47:48;31.70;73.40
23685;DHT22;12020;51.384;6.908;2022-08-14T13:50:16;31.60;73.00
23685;DHT22;12020;51.384;6.908;2022-08-14T13:52:50;31.60;73.80
23685;DHT22;12020;51.384;6.908;2022-08-14T13:55:22;31.60;73.90
23685;DHT22;12020;51.384;6.908;2022-08-14T13:57:49;31.60;72.00
23685;DHT22;12020;51.384;6.908;2022-08-14T14:00:17;31.60;71.00
23685;DHT22;12020;51.384;6.908;2022-08-14T14:02:45;31.50;71.20
23685;DHT22;12020;51.384;6.908;2022-08-14T14:05:17;31.50;71.60
23685;DHT22;12020;51.384;6.908;2022-08-14T14:07:48;31.50;72.40
23685;DHT22;12020;51.384;6.908;2022-08-14T14:10:15;31.60;74.00
23685;DHT22;12020;51.384;6.908;2022-08-14T14:12:43;31.60;71.90
23685;DHT22;12020;51.384;6.908;2022-08-14T14:15:13;31.60;72.30
23685;DHT22;12020;51.384;6.908;2022-08-14T14:17:40;31.70;72.30
23685;DHT22;12020;51.384;6.908;2022-08-14T14:20:12;31.70;71.60
23685;DHT22;12020;51.384;6.908;2022-08-14T14:22:42;31.70;70.50
23685;DHT22;12020;51.384;6.908;2022-08-14T14:25:12;31.60;70.30
23685;DHT22;12020;51.384;6.908;2022-08-14T14:27:41;31.60;70.90
23685;DHT22;12020;51.384;6.908;2022-08-14T14:30:10;31.50;71.30
23685;DHT22;12020;51.384;6.908;2022-08-14T14:32:39;31.50;70.80
23685;DHT22;12020;51.384;6.908;2022-08-14T14:35:11;31.50;71.80
23685;DHT22;12020;51.384;6.908;2022-08-14T14:37:39;31.50;71.60
23685;DHT22;12020;51.384;6.908;2022-08-14T14:40:07;31.40;71.20
23685;DHT22;12020;51.384;6.908;2022-08-14T14:42:43;31.30;71.40
23685;DHT22;12020;51.384;6.908;2022-08-14T14:45:12;31.20;71.60
23685;DHT22;12020;51.384;6.908;2022-08-14T14:47:52;31.20;72.20
23685;DHT22;12020;51.384;6.908;2022-08-14T14:50:20;31.20;70.80
23685;DHT22;12020;51.384;6.908;2022-08-14T14:52:47;31.20;71.30
23685;DHT22;12020;51.384;6.908;2022-08-14T14:55:16;31.30;72.00
23685;DHT22;12020;51.384;6.908;2022-08-14T14:57:45;31.20;72.00
23685;DHT22;12020;51.384;6.908;2022-08-14T15:00:18;31.20;73.10
23685;DHT22;12020;51.384;6.908;2022-08-14T15:02:49;31.20;72.60
23685;DHT22;12020;51.384;6.908;2022-08-14T15:05:16;31.20;74.20
23685;DHT22;12020;51.384;6.908;2022-08-14T15:07:44;31.20;73.70
23685;DHT22;12020;51.384;6.908;2022-08-14T15:10:14;31.20;73.40
23685;DHT22;12020;51.384;6.908;2022-08-14T15:12:49;31.30;74.70
23685;DHT22;12020;51.384;6.908;2022-08-14T15:15:15;31.30;74.40
23685;DHT22;12020;51.384;6.908;2022-08-14T15:17:41;31.30;72.60
23685;DHT22;12020;51.384;6.908;2022-08-14T15:20:12;31.40;73.90
23685;DHT22;12020;51.384;6.908;2022-08-14T15:22:39;31.40;72.00
23685;DHT22;12020;51.384;6.908;2022-08-14T15:25:08;31.40;71.90
23685;DHT22;12020;51.384;6.908;2022-08-14T15:27:38;31.30;72.30
23685;DHT22;12020;51.384;6.908;2022-08-14T15:30:07;31.30;73.00
23685;DHT22;12020;51.384;6.908;2022-08-14T15:32:34;31.30;72.30
23685;DHT22;12020;51.384;6.908;2022-08-14T15:35:02;31.20;72.70
23685;DHT22;12020;51.384;6.908;2022-08-14T15:37:29;31.20;72.00
23685;DHT22;12020;51.384;6.908;2022-08-14T15:39:55;31.20;72.20
23685;DHT22;12020;51.384;6.908;2022-08-14T15:42:22;31.20;71.70
23685;DHT22;12020;51.384;6.908;2022-08-14T15:44:50;31.30;71.60
23685;DHT22;12020;51.384;6.908;2022-08-14T15:47:18;31.30;73.20
23685;DHT22;12020;51.384;6.908;2022-08-14T15:49:45;31.30;74.80